Main page
METAR-TAF:

METAR-TAF

Airports :

Darke County Airport

Versailles, Ohio, United States

latitude: 40-12-16N, longitude: 084-31-55W, elevation: 1007 ft

Current weather observation

The report was made 41 minutes ago, at 21:30 UTC
Wind 6 mph from the North
Temperature 46°F
Humidity 66%
Pressure 30.02 in. Hg
Visibility: 10 miles
Scattered clouds at a height of 2600 ft
Broken clouds at a height of 3800 ft
Overcast at a height of 6500 ft

METAR: KVES 012130Z AUTO 36005KT 10SM SCT026 BKN038 OVC065 08/02 A3002 RMK AO2

Time: 18:11 (22:11 UTC)


TAF: missing

Weather observations and forecasts of more than 4000 airports (METAR and TAF reports).

The available stations are represented by yellow and red dots on the map.

Hover mouse over dot to see the name of the station.

Then click to see weather observations and forecasts.

To change the map : click on the green buttons with a black cross to zoom in, on the green button with a dash to zoom out, or on the green arrows for adjacent maps.


METAR-TAF: